sensor_id;sensor_type;location;lat;lon;timestamp;temperature;humidity
20041;DHT22;10181;48.072;9.884;2023-03-14T00:00:33;8.20;99.90
20041;DHT22;10181;48.072;9.884;2023-03-14T00:02:59;8.20;99.90
20041;DHT22;10181;48.072;9.884;2023-03-14T00:05:24;8.20;99.90
20041;DHT22;10181;48.072;9.884;2023-03-14T00:07:50;8.20;99.90
20041;DHT22;10181;48.072;9.884;2023-03-14T00:10:16;8.20;99.90
20041;DHT22;10181;48.072;9.884;2023-03-14T00:12:43;8.10;99.90
20041;DHT22;10181;48.072;9.884;2023-03-14T00:15:09;8.10;99.90
20041;DHT22;10181;48.072;9.884;2023-03-14T00:17:36;8.10;99.90
20041;DHT22;10181;48.072;9.884;2023-03-14T00:20:06;8.00;99.90
20041;DHT22;10181;48.072;9.884;2023-03-14T00:22:35;7.90;99.90
20041;DHT22;10181;48.072;9.884;2023-03-14T00:25:02;7.90;99.90
20041;DHT22;10181;48.072;9.884;2023-03-14T00:27:28;7.80;99.90
20041;DHT22;10181;48.072;9.884;2023-03-14T00:29:53;7.80;99.90
20041;DHT22;10181;48.072;9.884;2023-03-14T00:32:19;7.80;99.90
20041;DHT22;10181;48.072;9.884;2023-03-14T00:34:44;7.80;99.90
20041;DHT22;10181;48.072;9.884;2023-03-14T00:37:10;7.80;99.90
20041;DHT22;10181;48.072;9.884;2023-03-14T00:39:36;7.80;99.90
20041;DHT22;10181;48.072;9.884;2023-03-14T00:42:02;7.90;99.90
20041;DHT22;10181;48.072;9.884;2023-03-14T00:44:28;7.90;99.90
20041;DHT22;10181;48.072;9.884;2023-03-14T00:46:55;7.90;99.90
20041;DHT22;10181;48.072;9.884;2023-03-14T00:49:20;7.80;99.90
20041;DHT22;10181;48.072;9.884;2023-03-14T00:51:46;7.80;99.90
20041;DHT22;10181;48.072;9.884;2023-03-14T00:54:11;7.70;99.90
20041;DHT22;10181;48.072;9.884;2023-03-14T00:56:37;7.70;99.90
20041;DHT22;10181;48.072;9.884;2023-03-14T00:59:03;7.70;99.90
20041;DHT22;10181;48.072;9.884;2023-03-14T01:01:28;7.60;99.90
20041;DHT22;10181;48.072;9.884;2023-03-14T01:03:55;7.60;99.90
20041;DHT22;10181;48.072;9.884;2023-03-14T01:06:26;7.70;99.90
20041;DHT22;10181;48.072;9.884;2023-03-14T01:08:53;7.60;99.90
20041;DHT22;10181;48.072;9.884;2023-03-14T01:11:25;7.60;99.90
20041;DHT22;10181;48.072;9.884;2023-03-14T01:13:51;7.60;99.90
20041;DHT22;10181;48.072;9.884;2023-03-14T01:16:18;7.60;99.90
20041;DHT22;10181;48.072;9.884;2023-03-14T01:18:45;7.60;99.90
20041;DHT22;10181;48.072;9.884;2023-03-14T01:21:14;7.70;99.90
20041;DHT22;10181;48.072;9.884;2023-03-14T01:23:41;7.60;99.90
20041;DHT22;10181;48.072;9.884;2023-03-14T01:26:12;7.50;99.90
20041;DHT22;10181;48.072;9.884;2023-03-14T01:28:38;7.40;99.90
20041;DHT22;10181;48.072;9.884;2023-03-14T01:31:09;7.40;99.90
20041;DHT22;10181;48.072;9.884;2023-03-14T01:33:35;7.50;99.90
20041;DHT22;10181;48.072;9.884;2023-03-14T01:36:01;7.50;99.90
20041;DHT22;10181;48.072;9.884;2023-03-14T01:38:31;7.50;99.90
20041;DHT22;10181;48.072;9.884;2023-03-14T01:40:57;7.50;99.90
20041;DHT22;10181;48.072;9.884;2023-03-14T01:43:25;7.60;99.90
20041;DHT22;10181;48.072;9.884;2023-03-14T01:48:27;7.70;99.90
20041;DHT22;10181;48.072;9.884;2023-03-14T01:50:54;7.70;99.90
20041;DHT22;10181;48.072;9.884;2023-03-14T01:53:20;7.70;99.90
20041;DHT22;10181;48.072;9.884;2023-03-14T01:55:48;7.70;99.90
20041;DHT22;10181;48.072;9.884;2023-03-14T01:58:14;7.70;99.90
20041;DHT22;10181;48.072;9.884;2023-03-14T02:00:41;7.60;99.90
20041;DHT22;10181;48.072;9.884;2023-03-14T02:03:11;7.60;99.90
20041;DHT22;10181;48.072;9.884;2023-03-14T02:05:39;7.60;99.90
20041;DHT22;10181;48.072;9.884;2023-03-14T02:08:08;7.60;99.90
20041;DHT22;10181;48.072;9.884;2023-03-14T02:10:41;7.60;99.90
20041;DHT22;10181;48.072;9.884;2023-03-14T02:13:08;7.60;99.90
20041;DHT22;10181;48.072;9.884;2023-03-14T02:15:34;7.50;99.90
20041;DHT22;10181;48.072;9.884;2023-03-14T02:18:01;7.50;99.90
20041;DHT22;10181;48.072;9.884;2023-03-14T02:20:33;7.40;99.90
20041;DHT22;10181;48.072;9.884;2023-03-14T02:23:01;7.40;99.90
20041;DHT22;10181;48.072;9.884;2023-03-14T02:25:40;7.30;99.90
20041;DHT22;10181;48.072;9.884;2023-03-14T02:28:09;7.30;99.90
20041;DHT22;10181;48.072;9.884;2023-03-14T02:30:35;7.30;99.90
20041;DHT22;10181;48.072;9.884;2023-03-14T02:35:37;7.20;99.90
20041;DHT22;10181;48.072;9.884;2023-03-14T02:38:19;7.20;99.90
20041;DHT22;10181;48.072;9.884;2023-03-14T02:40:46;7.20;99.90
20041;DHT22;10181;48.072;9.884;2023-03-14T02:43:12;7.20;99.90
20041;DHT22;10181;48.072;9.884;2023-03-14T02:45:46;7.20;99.90
20041;DHT22;10181;48.072;9.884;2023-03-14T02:48:18;7.20;99.90
20041;DHT22;10181;48.072;9.884;2023-03-14T02:50:46;7.20;99.90
20041;DHT22;10181;48.072;9.884;2023-03-14T02:53:16;7.20;99.90
20041;DHT22;10181;48.072;9.884;2023-03-14T02:55:47;7.20;99.90
20041;DHT22;10181;48.072;9.884;2023-03-14T02:58:13;7.20;99.90
20041;DHT22;10181;48.072;9.884;2023-03-14T03:00:39;7.20;99.90
20041;DHT22;10181;48.072;9.884;2023-03-14T03:03:05;7.20;99.90
20041;DHT22;10181;48.072;9.884;2023-03-14T03:05:32;7.20;99.90
20041;DHT22;10181;48.072;9.884;2023-03-14T03:07:57;7.20;99.90
20041;DHT22;10181;48.072;9.884;2023-03-14T03:10:23;7.20;99.90
20041;DHT22;10181;48.072;9.884;2023-03-14T03:12:49;7.20;99.90
20041;DHT22;10181;48.072;9.884;2023-03-14T03:15:14;7.20;99.90
20041;DHT22;10181;48.072;9.884;2023-03-14T03:17:40;7.20;99.90
20041;DHT22;10181;48.072;9.884;2023-03-14T03:20:06;7.10;99.90
20041;DHT22;10181;48.072;9.884;2023-03-14T03:22:35;7.10;99.90
20041;DHT22;10181;48.072;9.884;2023-03-14T03:25:00;7.10;99.90
20041;DHT22;10181;48.072;9.884;2023-03-14T03:27:26;7.10;99.90
20041;DHT22;10181;48.072;9.884;2023-03-14T03:29:52;7.00;99.90
20041;DHT22;10181;48.072;9.884;2023-03-14T03:32:17;7.00;99.90
20041;DHT22;10181;48.072;9.884;2023-03-14T03:34:43;7.00;99.90
20041;DHT22;10181;48.072;9.884;2023-03-14T03:37:08;7.00;99.90
20041;DHT22;10181;48.072;9.884;2023-03-14T03:39:34;6.90;99.90
20041;DHT22;10181;48.072;9.884;2023-03-14T03:42:00;7.00;99.90
20041;DHT22;10181;48.072;9.884;2023-03-14T03:44:25;7.00;99.90
20041;DHT22;10181;48.072;9.884;2023-03-14T03:46:51;6.90;99.90
20041;DHT22;10181;48.072;9.884;2023-03-14T03:49:17;6.90;99.90
20041;DHT22;10181;48.072;9.884;2023-03-14T03:51:43;7.00;99.90
20041;DHT22;10181;48.072;9.884;2023-03-14T03:54:08;7.00;99.90
20041;DHT22;10181;48.072;9.884;2023-03-14T03:56:34;7.00;99.90
20041;DHT22;10181;48.072;9.884;2023-03-14T03:58:59;7.00;99.90
20041;DHT22;10181;48.072;9.884;2023-03-14T04:01:25;7.10;99.90
20041;DHT22;10181;48.072;9.884;2023-03-14T04:03:51;7.10;99.90
20041;DHT22;10181;48.072;9.884;2023-03-14T04:06:16;7.10;99.90
20041;DHT22;10181;48.072;9.884;2023-03-14T04:08:42;7.10;99.90
20041;DHT22;10181;48.072;9.884;2023-03-14T04:11:09;7.10;99.90
20041;DHT22;10181;48.072;9.884;2023-03-14T04:13:34;7.00;99.90
20041;DHT22;10181;48.072;9.884;2023-03-14T04:16:00;7.00;99.90
20041;DHT22;10181;48.072;9.884;2023-03-14T04:18:26;7.00;99.90
20041;DHT22;10181;48.072;9.884;2023-03-14T04:20:53;7.00;99.90
20041;DHT22;10181;48.072;9.884;2023-03-14T04:23:18;7.00;99.90
20041;DHT22;10181;48.072;9.884;2023-03-14T04:25:44;7.00;99.90
20041;DHT22;10181;48.072;9.884;2023-03-14T04:28:10;7.00;99.90
20041;DHT22;10181;48.072;9.884;2023-03-14T04:30:35;7.00;99.90
20041;DHT22;10181;48.072;9.884;2023-03-14T04:33:01;7.00;99.90
20041;DHT22;10181;48.072;9.884;2023-03-14T04:35:27;7.00;99.90
20041;DHT22;10181;48.072;9.884;2023-03-14T04:37:52;7.00;99.90
20041;DHT22;10181;48.072;9.884;2023-03-14T04:40:18;7.00;99.90
20041;DHT22;10181;48.072;9.884;2023-03-14T04:42:44;6.90;99.90
20041;DHT22;10181;48.072;9.884;2023-03-14T04:45:10;6.90;99.90
20041;DHT22;10181;48.072;9.884;2023-03-14T04:47:35;6.90;99.90
20041;DHT22;10181;48.072;9.884;2023-03-14T04:50:01;6.90;99.90
20041;DHT22;10181;48.072;9.884;2023-03-14T04:52:27;6.90;99.90
20041;DHT22;10181;48.072;9.884;2023-03-14T04:54:53;6.80;99.90
20041;DHT22;10181;48.072;9.884;2023-03-14T04:57:19;6.90;99.90
20041;DHT22;10181;48.072;9.884;2023-03-14T04:59:44;6.80;99.90
20041;DHT22;10181;48.072;9.884;2023-03-14T05:02:10;6.80;99.90
20041;DHT22;10181;48.072;9.884;2023-03-14T05:04:35;6.80;99.90
20041;DHT22;10181;48.072;9.884;2023-03-14T05:07:01;6.80;99.90
20041;DHT22;10181;48.072;9.884;2023-03-14T05:09:27;6.80;99.90
20041;DHT22;10181;48.072;9.884;2023-03-14T05:11:52;6.80;99.90
20041;DHT22;10181;48.072;9.884;2023-03-14T05:14:18;6.80;99.90
20041;DHT22;10181;48.072;9.884;2023-03-14T05:16:43;6.80;99.90
20041;DHT22;10181;48.072;9.884;2023-03-14T05:19:10;6.80;99.90
20041;DHT22;10181;48.072;9.884;2023-03-14T05:21:36;6.80;99.90
20041;DHT22;10181;48.072;9.884;2023-03-14T05:24:02;6.80;99.90
20041;DHT22;10181;48.072;9.884;2023-03-14T05:26:28;6.80;99.90
20041;DHT22;10181;48.072;9.884;2023-03-14T05:28:53;6.80;99.90
20041;DHT22;10181;48.072;9.884;2023-03-14T05:31:19;6.80;99.90
20041;DHT22;10181;48.072;9.884;2023-03-14T05:33:45;6.80;99.90
20041;DHT22;10181;48.072;9.884;2023-03-14T05:36:10;6.80;99.90
20041;DHT22;10181;48.072;9.884;2023-03-14T05:38:36;6.80;99.90
20041;DHT22;10181;48.072;9.884;2023-03-14T05:41:02;6.80;99.90
20041;DHT22;10181;48.072;9.884;2023-03-14T05:43:27;6.80;99.90
20041;DHT22;10181;48.072;9.884;2023-03-14T05:45:53;6.80;99.90
20041;DHT22;10181;48.072;9.884;2023-03-14T05:48:18;6.80;99.90
20041;DHT22;10181;48.072;9.884;2023-03-14T05:50:44;6.80;99.90
20041;DHT22;10181;48.072;9.884;2023-03-14T05:53:09;6.80;99.90
20041;DHT22;10181;48.072;9.884;2023-03-14T05:55:35;6.80;99.90
20041;DHT22;10181;48.072;9.884;2023-03-14T05:58:01;6.90;99.90
20041;DHT22;10181;48.072;9.884;2023-03-14T06:00:26;6.90;99.90
20041;DHT22;10181;48.072;9.884;2023-03-14T06:02:52;6.80;99.90
20041;DHT22;10181;48.072;9.884;2023-03-14T06:05:18;6.80;99.90
20041;DHT22;10181;48.072;9.884;2023-03-14T06:07:43;6.80;99.90
20041;DHT22;10181;48.072;9.884;2023-03-14T06:10:09;6.80;99.90
20041;DHT22;10181;48.072;9.884;2023-03-14T06:12:35;6.80;99.90
20041;DHT22;10181;48.072;9.884;2023-03-14T06:15:01;6.90;99.90
20041;DHT22;10181;48.072;9.884;2023-03-14T06:17:26;6.90;99.90
20041;DHT22;10181;48.072;9.884;2023-03-14T06:19:52;6.80;99.90
20041;DHT22;10181;48.072;9.884;2023-03-14T06:22:17;6.90;99.90
20041;DHT22;10181;48.072;9.884;2023-03-14T06:24:44;6.90;99.90
20041;DHT22;10181;48.072;9.884;2023-03-14T06:27:10;6.90;99.90
20041;DHT22;10181;48.072;9.884;2023-03-14T06:29:36;6.90;99.90
20041;DHT22;10181;48.072;9.884;2023-03-14T06:32:01;6.90;99.90
20041;DHT22;10181;48.072;9.884;2023-03-14T06:34:27;6.90;99.90
20041;DHT22;10181;48.072;9.884;2023-03-14T06:36:53;7.00;99.90
20041;DHT22;10181;48.072;9.884;2023-03-14T06:39:18;7.00;99.90
20041;DHT22;10181;48.072;9.884;2023-03-14T06:41:44;7.00;99.90
20041;DHT22;10181;48.072;9.884;2023-03-14T06:44:09;7.00;99.90
20041;DHT22;10181;48.072;9.884;2023-03-14T06:46:35;7.00;99.90
20041;DHT22;10181;48.072;9.884;2023-03-14T06:49:00;7.00;99.90
20041;DHT22;10181;48.072;9.884;2023-03-14T06:51:26;7.00;99.90
20041;DHT22;10181;48.072;9.884;2023-03-14T06:53:52;7.10;99.90
20041;DHT22;10181;48.072;9.884;2023-03-14T06:56:17;7.10;99.90
20041;DHT22;10181;48.072;9.884;2023-03-14T06:58:43;7.10;99.90
20041;DHT22;10181;48.072;9.884;2023-03-14T07:01:36;7.10;99.90
20041;DHT22;10181;48.072;9.884;2023-03-14T07:04:02;7.10;99.90
20041;DHT22;10181;48.072;9.884;2023-03-14T07:06:28;7.10;99.90
20041;DHT22;10181;48.072;9.884;2023-03-14T07:08:56;7.10;99.90
20041;DHT22;10181;48.072;9.884;2023-03-14T07:11:22;7.20;99.90
20041;DHT22;10181;48.072;9.884;2023-03-14T07:13:48;7.20;99.90
20041;DHT22;10181;48.072;9.884;2023-03-14T07:16:14;7.30;99.90
20041;DHT22;10181;48.072;9.884;2023-03-14T07:18:39;7.30;99.90
20041;DHT22;10181;48.072;9.884;2023-03-14T07:21:07;7.30;99.90
20041;DHT22;10181;48.072;9.884;2023-03-14T07:23:34;7.40;99.90
20041;DHT22;10181;48.072;9.884;2023-03-14T07:26:00;7.50;99.90
20041;DHT22;10181;48.072;9.884;2023-03-14T07:28:26;7.50;99.90
20041;DHT22;10181;48.072;9.884;2023-03-14T07:30:53;7.50;99.90
20041;DHT22;10181;48.072;9.884;2023-03-14T07:33:19;7.50;99.90
20041;DHT22;10181;48.072;9.884;2023-03-14T07:35:47;7.50;99.90
20041;DHT22;10181;48.072;9.884;2023-03-14T07:38:14;7.50;99.90
20041;DHT22;10181;48.072;9.884;2023-03-14T07:40:39;7.60;99.90
20041;DHT22;10181;48.072;9.884;2023-03-14T07:43:05;7.60;99.90
20041;DHT22;10181;48.072;9.884;2023-03-14T07:45:30;7.60;99.90
20041;DHT22;10181;48.072;9.884;2023-03-14T07:47:56;7.60;99.90
20041;DHT22;10181;48.072;9.884;2023-03-14T07:50:24;7.70;99.90
20041;DHT22;10181;48.072;9.884;2023-03-14T07:52:49;7.80;99.90
20041;DHT22;10181;48.072;9.884;2023-03-14T07:55:15;7.80;99.90
20041;DHT22;10181;48.072;9.884;2023-03-14T07:57:41;7.80;99.90
20041;DHT22;10181;48.072;9.884;2023-03-14T08:00:08;7.80;99.90
20041;DHT22;10181;48.072;9.884;2023-03-14T08:02:33;7.80;99.90
20041;DHT22;10181;48.072;9.884;2023-03-14T08:05:00;7.90;99.90
20041;DHT22;10181;48.072;9.884;2023-03-14T08:07:26;8.00;99.90
20041;DHT22;10181;48.072;9.884;2023-03-14T08:09:52;8.00;99.90
20041;DHT22;10181;48.072;9.884;2023-03-14T08:12:17;8.10;99.90
20041;DHT22;10181;48.072;9.884;2023-03-14T08:14:43;8.20;99.90
20041;DHT22;10181;48.072;9.884;2023-03-14T08:17:08;8.30;99.90
20041;DHT22;10181;48.072;9.884;2023-03-14T08:19:34;8.40;99.90
20041;DHT22;10181;48.072;9.884;2023-03-14T08:22:00;8.40;99.90
20041;DHT22;10181;48.072;9.884;2023-03-14T08:24:25;8.50;99.90
20041;DHT22;10181;48.072;9.884;2023-03-14T08:26:51;8.50;99.90
20041;DHT22;10181;48.072;9.884;2023-03-14T08:29:16;8.60;99.90
20041;DHT22;10181;48.072;9.884;2023-03-14T08:31:42;8.70;99.90
20041;DHT22;10181;48.072;9.884;2023-03-14T08:34:08;8.70;99.90
20041;DHT22;10181;48.072;9.884;2023-03-14T08:36:34;8.80;99.90
20041;DHT22;10181;48.072;9.884;2023-03-14T08:38:59;9.00;99.90
20041;DHT22;10181;48.072;9.884;2023-03-14T08:41:25;9.10;99.90
20041;DHT22;10181;48.072;9.884;2023-03-14T08:43:50;9.20;99.90
20041;DHT22;10181;48.072;9.884;2023-03-14T08:46:16;9.20;99.90
20041;DHT22;10181;48.072;9.884;2023-03-14T08:48:41;9.20;99.90
20041;DHT22;10181;48.072;9.884;2023-03-14T08:51:13;9.40;99.90
20041;DHT22;10181;48.072;9.884;2023-03-14T08:53:39;9.60;99.90
20041;DHT22;10181;48.072;9.884;2023-03-14T08:56:05;9.80;99.90
20041;DHT22;10181;48.072;9.884;2023-03-14T08:58:32;9.70;99.90
20041;DHT22;10181;48.072;9.884;2023-03-14T09:00:58;9.70;99.90
20041;DHT22;10181;48.072;9.884;2023-03-14T09:03:24;9.60;99.90
20041;DHT22;10181;48.072;9.884;2023-03-14T09:05:50;9.60;99.90
20041;DHT22;10181;48.072;9.884;2023-03-14T09:08:16;9.50;99.90
20041;DHT22;10181;48.072;9.884;2023-03-14T09:10:42;9.60;99.90
20041;DHT22;10181;48.072;9.884;2023-03-14T09:13:08;9.80;99.90
20041;DHT22;10181;48.072;9.884;2023-03-14T09:15:33;9.90;99.90
20041;DHT22;10181;48.072;9.884;2023-03-14T09:17:59;10.00;99.90
20041;DHT22;10181;48.072;9.884;2023-03-14T09:20:25;10.20;99.90
20041;DHT22;10181;48.072;9.884;2023-03-14T09:22:50;10.40;99.90
20041;DHT22;10181;48.072;9.884;2023-03-14T09:25:16;10.50;99.90
20041;DHT22;10181;48.072;9.884;2023-03-14T09:27:42;10.50;99.90
20041;DHT22;10181;48.072;9.884;2023-03-14T09:30:08;10.50;99.90
20041;DHT22;10181;48.072;9.884;2023-03-14T09:32:34;10.50;99.90
20041;DHT22;10181;48.072;9.884;2023-03-14T09:34:59;10.50;99.90
20041;DHT22;10181;48.072;9.884;2023-03-14T09:37:25;10.60;99.90
20041;DHT22;10181;48.072;9.884;2023-03-14T09:39:51;10.50;99.90
20041;DHT22;10181;48.072;9.884;2023-03-14T09:42:19;10.30;99.90
20041;DHT22;10181;48.072;9.884;2023-03-14T09:44:56;10.40;99.90
20041;DHT22;10181;48.072;9.884;2023-03-14T09:47:23;10.60;99.90
20041;DHT22;10181;48.072;9.884;2023-03-14T09:49:49;10.80;99.90
20041;DHT22;10181;48.072;9.884;2023-03-14T09:52:27;10.90;99.90
20041;DHT22;10181;48.072;9.884;2023-03-14T09:54:58;10.90;99.90
20041;DHT22;10181;48.072;9.884;2023-03-14T09:57:26;10.90;99.90
20041;DHT22;10181;48.072;9.884;2023-03-14T09:59:56;11.10;99.90
20041;DHT22;10181;48.072;9.884;2023-03-14T10:02:33;11.10;99.90
20041;DHT22;10181;48.072;9.884;2023-03-14T10:05:00;11.00;99.90
20041;DHT22;10181;48.072;9.884;2023-03-14T10:07:31;10.90;99.90
20041;DHT22;10181;48.072;9.884;2023-03-14T10:09:57;10.90;99.90
20041;DHT22;10181;48.072;9.884;2023-03-14T10:12:37;11.00;99.90
20041;DHT22;10181;48.072;9.884;2023-03-14T10:15:07;11.20;99.90
20041;DHT22;10181;48.072;9.884;2023-03-14T10:17:46;11.20;99.90
20041;DHT22;10181;48.072;9.884;2023-03-14T10:20:37;11.10;99.90
20041;DHT22;10181;48.072;9.884;2023-03-14T10:25:40;11.40;99.90
20041;DHT22;10181;48.072;9.884;2023-03-14T10:30:48;11.30;99.90
20041;DHT22;10181;48.072;9.884;2023-03-14T10:35:42;11.30;99.90
20041;DHT22;10181;48.072;9.884;2023-03-14T10:38:13;11.00;99.90
20041;DHT22;10181;48.072;9.884;2023-03-14T10:40:41;11.00;99.90
20041;DHT22;10181;48.072;9.884;2023-03-14T10:43:17;10.80;99.90
20041;DHT22;10181;48.072;9.884;2023-03-14T10:46:05;10.70;99.90
20041;DHT22;10181;48.072;9.884;2023-03-14T10:48:34;10.70;99.90
20041;DHT22;10181;48.072;9.884;2023-03-14T10:56:16;10.60;99.90
20041;DHT22;10181;48.072;9.884;2023-03-14T10:58:45;10.40;99.90
20041;DHT22;10181;48.072;9.884;2023-03-14T11:06:55;10.40;99.90
20041;DHT22;10181;48.072;9.884;2023-03-14T11:15:40;11.00;99.90
20041;DHT22;10181;48.072;9.884;2023-03-14T11:20:47;11.10;99.90
20041;DHT22;10181;48.072;9.884;2023-03-14T11:24:27;11.10;99.90
20041;DHT22;10181;48.072;9.884;2023-03-14T11:32:32;11.20;99.90
20041;DHT22;10181;48.072;9.884;2023-03-14T11:35:04;11.20;99.90
20041;DHT22;10181;48.072;9.884;2023-03-14T11:37:36;10.80;99.90
20041;DHT22;10181;48.072;9.884;2023-03-14T11:40:14;10.70;99.90
20041;DHT22;10181;48.072;9.884;2023-03-14T11:42:44;10.70;99.90
20041;DHT22;10181;48.072;9.884;2023-03-14T11:45:19;10.40;99.90
20041;DHT22;10181;48.072;9.884;2023-03-14T11:47:51;10.40;99.90
20041;DHT22;10181;48.072;9.884;2023-03-14T11:50:27;10.30;99.90
20041;DHT22;10181;48.072;9.884;2023-03-14T11:52:58;10.20;99.90
20041;DHT22;10181;48.072;9.884;2023-03-14T11:55:31;9.80;99.90
20041;DHT22;10181;48.072;9.884;2023-03-14T12:00:56;9.80;99.90
20041;DHT22;10181;48.072;9.884;2023-03-14T12:03:55;9.90;99.90
20041;DHT22;10181;48.072;9.884;2023-03-14T12:06:23;9.70;99.90
20041;DHT22;10181;48.072;9.884;2023-03-14T12:08:58;9.40;99.90
20041;DHT22;10181;48.072;9.884;2023-03-14T12:11:31;9.00;99.90
20041;DHT22;10181;48.072;9.884;2023-03-14T12:13:58;8.90;99.90
20041;DHT22;10181;48.072;9.884;2023-03-14T12:18:50;8.70;99.90
20041;DHT22;10181;48.072;9.884;2023-03-14T12:21:17;8.60;99.90
20041;DHT22;10181;48.072;9.884;2023-03-14T12:23:56;8.60;99.90
20041;DHT22;10181;48.072;9.884;2023-03-14T12:26:25;8.40;99.90
20041;DHT22;10181;48.072;9.884;2023-03-14T12:28:52;8.50;99.90
20041;DHT22;10181;48.072;9.884;2023-03-14T12:42:03;8.10;99.90
20041;DHT22;10181;48.072;9.884;2023-03-14T12:46:57;8.00;99.90
20041;DHT22;10181;48.072;9.884;2023-03-14T12:49:29;8.00;99.90
20041;DHT22;10181;48.072;9.884;2023-03-14T12:52:01;7.90;99.90
20041;DHT22;10181;48.072;9.884;2023-03-14T13:00:32;8.00;99.90
20041;DHT22;10181;48.072;9.884;2023-03-14T13:03:22;8.00;99.90
20041;DHT22;10181;48.072;9.884;2023-03-14T13:05:59;7.80;99.90
20041;DHT22;10181;48.072;9.884;2023-03-14T13:08:43;7.60;99.90
20041;DHT22;10181;48.072;9.884;2023-03-14T13:11:16;7.60;99.90
20041;DHT22;10181;48.072;9.884;2023-03-14T13:13:45;7.70;99.90
20041;DHT22;10181;48.072;9.884;2023-03-14T13:16:19;7.60;99.90
20041;DHT22;10181;48.072;9.884;2023-03-14T13:18:48;7.60;99.90
20041;DHT22;10181;48.072;9.884;2023-03-14T13:21:18;7.50;99.90
20041;DHT22;10181;48.072;9.884;2023-03-14T13:24:06;7.40;99.90
20041;DHT22;10181;48.072;9.884;2023-03-14T13:26:42;7.40;99.90
20041;DHT22;10181;48.072;9.884;2023-03-14T13:29:19;7.30;99.90
20041;DHT22;10181;48.072;9.884;2023-03-14T13:31:52;7.30;99.90
20041;DHT22;10181;48.072;9.884;2023-03-14T13:34:18;7.30;99.90
20041;DHT22;10181;48.072;9.884;2023-03-14T13:36:44;7.30;99.90
20041;DHT22;10181;48.072;9.884;2023-03-14T13:39:13;7.40;99.90
20041;DHT22;10181;48.072;9.884;2023-03-14T13:41:42;7.40;99.90
20041;DHT22;10181;48.072;9.884;2023-03-14T13:44:14;7.40;99.90
20041;DHT22;10181;48.072;9.884;2023-03-14T13:46:41;7.30;99.90
20041;DHT22;10181;48.072;9.884;2023-03-14T13:49:13;7.30;99.90
20041;DHT22;10181;48.072;9.884;2023-03-14T13:51:44;7.20;99.90
20041;DHT22;10181;48.072;9.884;2023-03-14T13:54:15;7.10;99.90
20041;DHT22;10181;48.072;9.884;2023-03-14T13:56:41;7.10;99.90
20041;DHT22;10181;48.072;9.884;2023-03-14T13:59:27;7.10;99.90
20041;DHT22;10181;48.072;9.884;2023-03-14T14:01:54;7.20;99.90
20041;DHT22;10181;48.072;9.884;2023-03-14T14:04:22;7.10;99.90
20041;DHT22;10181;48.072;9.884;2023-03-14T14:06:56;7.10;99.90
20041;DHT22;10181;48.072;9.884;2023-03-14T14:12:02;7.20;99.90
20041;DHT22;10181;48.072;9.884;2023-03-14T14:14:34;7.10;99.90
20041;DHT22;10181;48.072;9.884;2023-03-14T14:17:04;7.00;99.90
20041;DHT22;10181;48.072;9.884;2023-03-14T14:19:32;7.00;99.90
20041;DHT22;10181;48.072;9.884;2023-03-14T14:21:59;7.10;99.90
20041;DHT22;10181;48.072;9.884;2023-03-14T14:24:29;7.20;99.90
20041;DHT22;10181;48.072;9.884;2023-03-14T14:29:33;7.30;99.90
20041;DHT22;10181;48.072;9.884;2023-03-14T14:34:57;7.60;99.90
20041;DHT22;10181;48.072;9.884;2023-03-14T14:37:31;7.60;99.90
20041;DHT22;10181;48.072;9.884;2023-03-14T14:40:17;7.70;99.90
20041;DHT22;10181;48.072;9.884;2023-03-14T14:42:44;7.80;99.90
20041;DHT22;10181;48.072;9.884;2023-03-14T14:45:14;7.90;99.90
20041;DHT22;10181;48.072;9.884;2023-03-14T14:48:09;7.80;99.90
20041;DHT22;10181;48.072;9.884;2023-03-14T14:55:45;7.90;99.90
20041;DHT22;10181;48.072;9.884;2023-03-14T14:58:25;7.90;99.90
20041;DHT22;10181;48.072;9.884;2023-03-14T15:00:55;7.80;99.90
20041;DHT22;10181;48.072;9.884;2023-03-14T15:03:21;7.80;99.90
20041;DHT22;10181;48.072;9.884;2023-03-14T15:05:47;7.80;99.90
20041;DHT22;10181;48.072;9.884;2023-03-14T15:08:13;7.80;99.90
20041;DHT22;10181;48.072;9.884;2023-03-14T15:10:39;7.70;99.90
20041;DHT22;10181;48.072;9.884;2023-03-14T15:13:04;7.60;99.90
20041;DHT22;10181;48.072;9.884;2023-03-14T15:15:30;7.50;99.90
20041;DHT22;10181;48.072;9.884;2023-03-14T15:17:56;7.40;99.90
20041;DHT22;10181;48.072;9.884;2023-03-14T15:20:22;7.20;99.90
20041;DHT22;10181;48.072;9.884;2023-03-14T15:22:49;6.90;99.90
20041;DHT22;10181;48.072;9.884;2023-03-14T15:25:15;6.70;99.90
20041;DHT22;10181;48.072;9.884;2023-03-14T15:27:41;6.60;99.90
20041;DHT22;10181;48.072;9.884;2023-03-14T15:30:15;6.60;99.90
20041;DHT22;10181;48.072;9.884;2023-03-14T15:32:41;6.60;99.90
20041;DHT22;10181;48.072;9.884;2023-03-14T15:35:07;6.40;99.90
20041;DHT22;10181;48.072;9.884;2023-03-14T15:37:33;6.30;99.90
20041;DHT22;10181;48.072;9.884;2023-03-14T15:39:59;6.20;99.90
20041;DHT22;10181;48.072;9.884;2023-03-14T15:42:25;6.30;99.90
20041;DHT22;10181;48.072;9.884;2023-03-14T15:44:50;6.30;99.90
20041;DHT22;10181;48.072;9.884;2023-03-14T15:47:16;6.40;99.90
20041;DHT22;10181;48.072;9.884;2023-03-14T15:49:42;6.40;99.90
20041;DHT22;10181;48.072;9.884;2023-03-14T15:52:08;6.30;99.90
20041;DHT22;10181;48.072;9.884;2023-03-14T15:54:34;6.30;99.90
20041;DHT22;10181;48.072;9.884;2023-03-14T15:57:00;6.40;99.90
20041;DHT22;10181;48.072;9.884;2023-03-14T15:59:26;6.40;99.90
20041;DHT22;10181;48.072;9.884;2023-03-14T16:01:51;6.40;99.90
20041;DHT22;10181;48.072;9.884;2023-03-14T16:04:17;6.40;99.90
20041;DHT22;10181;48.072;9.884;2023-03-14T16:06:43;6.50;99.90
20041;DHT22;10181;48.072;9.884;2023-03-14T16:09:10;6.50;99.90
20041;DHT22;10181;48.072;9.884;2023-03-14T16:11:36;6.50;99.90
20041;DHT22;10181;48.072;9.884;2023-03-14T16:14:02;6.60;99.90
20041;DHT22;10181;48.072;9.884;2023-03-14T16:16:27;6.70;99.90
20041;DHT22;10181;48.072;9.884;2023-03-14T16:18:53;6.80;99.90
20041;DHT22;10181;48.072;9.884;2023-03-14T16:21:19;7.00;99.90
20041;DHT22;10181;48.072;9.884;2023-03-14T16:23:45;7.00;99.90
20041;DHT22;10181;48.072;9.884;2023-03-14T16:26:14;7.20;99.90
20041;DHT22;10181;48.072;9.884;2023-03-14T16:28:41;7.20;99.90
20041;DHT22;10181;48.072;9.884;2023-03-14T16:31:09;7.10;99.90
20041;DHT22;10181;48.072;9.884;2023-03-14T16:33:37;7.00;99.90
20041;DHT22;10181;48.072;9.884;2023-03-14T16:36:04;7.00;99.90
20041;DHT22;10181;48.072;9.884;2023-03-14T16:38:33;7.20;99.90
20041;DHT22;10181;48.072;9.884;2023-03-14T16:41:10;7.30;99.90
20041;DHT22;10181;48.072;9.884;2023-03-14T16:43:36;7.10;99.90
20041;DHT22;10181;48.072;9.884;2023-03-14T16:46:04;7.00;99.90
20041;DHT22;10181;48.072;9.884;2023-03-14T16:48:29;7.00;99.90
20041;DHT22;10181;48.072;9.884;2023-03-14T16:50:55;7.00;99.90
20041;DHT22;10181;48.072;9.884;2023-03-14T16:53:22;6.80;99.90
20041;DHT22;10181;48.072;9.884;2023-03-14T16:55:49;6.60;99.90
20041;DHT22;10181;48.072;9.884;2023-03-14T16:58:15;6.60;99.90
20041;DHT22;10181;48.072;9.884;2023-03-14T17:00:40;6.50;99.90
20041;DHT22;10181;48.072;9.884;2023-03-14T17:03:06;6.50;99.90
20041;DHT22;10181;48.072;9.884;2023-03-14T17:05:32;6.50;99.90